KRID/RID METAR and TAF weather

Enter ICAO airport designator
Station Type Date Time Source
KRID METAR 2019/12/12 17:15 UTC NOAA

KRID 121715Z AUTO 15008KT 10SM CLR 00/M02 A3045 RMK AO2


Station Type Date Time Source
KRID Decoded METAR 2019/12/12 17:15 UTC NOAA

Station name not available
Dec 12, 2019 - 12:15 PM EST / 2019.12.12 1715 UTC
Wind: from the SSE (150 degrees) at 9 MPH (8 KT):0
Visibility: 10 mile(s):0
Sky conditions: clear
Temperature: 32 F (0 C)
Windchill: 24 F (-4 C):1
Dew Point: 28 F (-2 C)
Relative Humidity: 86%
Pressure (altimeter): 30.45 in. Hg (1031 hPa)
ob: KRID 121715Z AUTO 15008KT 10SM CLR 00/M02 A3045 RMK AO2
cycle: 17

Station Type Date Time Source
KRID TAF UTC NOAA

Error!

Example: see airport list